createdAt,value
2022-11-01T00:02:05.743Z,18.80
2022-11-01T00:04:35.192Z,18.70
2022-11-01T00:07:03.253Z,18.70
2022-11-01T00:09:31.240Z,18.70
2022-11-01T00:12:00.112Z,18.70
2022-11-01T00:14:28.181Z,18.70
2022-11-01T00:16:56.248Z,18.70
2022-11-01T00:19:24.277Z,18.70
2022-11-01T00:21:53.606Z,18.60
2022-11-01T00:24:21.654Z,18.70
2022-11-01T00:26:50.311Z,18.60
2022-11-01T00:29:19.537Z,18.60
2022-11-01T00:31:47.532Z,18.60
2022-11-01T00:34:18.904Z,18.60
2022-11-01T00:36:46.926Z,18.60
2022-11-01T00:39:16.836Z,18.50
2022-11-01T00:41:45.128Z,18.50
2022-11-01T00:44:13.198Z,18.50
2022-11-01T00:46:41.261Z,18.50
2022-11-01T00:49:09.247Z,18.50
2022-11-01T00:51:37.235Z,18.50
2022-11-01T00:54:05.674Z,18.50
2022-11-01T00:56:35.035Z,18.50
2022-11-01T00:59:03.063Z,18.50
2022-11-01T01:01:32.336Z,18.40
2022-11-01T01:04:00.592Z,18.40
2022-11-01T01:06:28.592Z,18.40
2022-11-01T01:09:00.655Z,18.40
2022-11-01T01:11:28.773Z,18.40
2022-11-01T01:13:58.273Z,18.40
2022-11-01T01:16:26.330Z,18.40
2022-11-01T01:18:54.364Z,18.40
2022-11-01T01:21:22.517Z,18.30
2022-11-01T01:23:51.432Z,18.30
2022-11-01T01:26:19.535Z,18.30
2022-11-01T01:28:47.591Z,18.30
2022-11-01T01:31:16.932Z,18.30
2022-11-01T01:33:44.947Z,18.30
2022-11-01T01:36:12.936Z,18.30
2022-11-01T01:38:40.998Z,18.20
2022-11-01T01:41:26.921Z,18.10
2022-11-01T01:43:54.941Z,18.20
2022-11-01T01:46:24.263Z,18.20
2022-11-01T01:49:00.639Z,18.10
2022-11-01T01:51:30.463Z,18.20
2022-11-01T01:53:59.678Z,18.10
2022-11-01T01:56:33.890Z,18.10
2022-11-01T01:59:06.652Z,18.10
2022-11-01T02:01:40.771Z,18.10
2022-11-01T02:04:20.609Z,18.00
2022-11-01T02:06:49.875Z,18.10
2022-11-01T02:09:19.299Z,18.00
2022-11-01T02:11:47.881Z,18.00
2022-11-01T02:14:17.693Z,18.00
2022-11-01T02:16:56.346Z,18.00
2022-11-01T02:20:12.733Z,17.90
2022-11-01T02:23:12.401Z,17.90
2022-11-01T02:26:09.799Z,17.90
2022-11-01T02:28:59.378Z,17.90
2022-11-01T02:32:00.959Z,17.80
2022-11-01T02:34:36.089Z,17.80
2022-11-01T02:37:15.840Z,17.80
2022-11-01T02:39:52.356Z,17.80
2022-11-01T02:42:26.793Z,17.80
2022-11-01T02:45:02.295Z,17.80
2022-11-01T02:47:33.706Z,17.80
2022-11-01T02:50:07.919Z,17.80
2022-11-01T02:52:39.361Z,17.80
2022-11-01T02:55:29.833Z,17.80
2022-11-01T02:58:02.667Z,17.80
2022-11-01T03:00:33.212Z,17.80
2022-11-01T03:03:15.219Z,17.70
2022-11-01T03:05:58.448Z,17.70
2022-11-01T03:08:34.077Z,17.70
2022-11-01T03:11:10.108Z,17.70
2022-11-01T03:13:56.442Z,17.70
2022-11-01T03:16:34.521Z,17.70
2022-11-01T03:19:25.157Z,17.60
2022-11-01T03:22:01.201Z,17.70
2022-11-01T03:24:34.409Z,17.70
2022-11-01T03:27:08.515Z,17.60
2022-11-01T03:29:39.198Z,17.60
2022-11-01T03:32:10.436Z,17.60
2022-11-01T03:34:42.377Z,17.60
2022-11-01T03:37:13.878Z,17.60
2022-11-01T03:39:47.952Z,17.60
2022-11-01T03:42:21.561Z,17.60
2022-11-01T03:44:58.505Z,17.60
2022-11-01T03:47:27.083Z,17.60
2022-11-01T03:50:15.918Z,17.60
2022-11-01T03:52:44.791Z,17.50
2022-11-01T03:55:19.553Z,17.60
2022-11-01T03:57:49.124Z,17.60
2022-11-01T04:00:19.737Z,17.60
2022-11-01T04:02:48.535Z,17.60
2022-11-01T04:05:19.300Z,17.60
2022-11-01T04:07:47.668Z,17.60
2022-11-01T04:10:16.681Z,17.60
2022-11-01T04:12:47.165Z,17.60
2022-11-01T04:15:34.205Z,17.60
2022-11-01T04:18:25.291Z,17.50
2022-11-01T04:20:55.226Z,17.50
2022-11-01T04:23:23.498Z,17.50
2022-11-01T04:25:51.616Z,17.50
2022-11-01T04:28:19.813Z,17.50
2022-11-01T04:30:47.928Z,17.50
2022-11-01T04:33:16.014Z,17.50
2022-11-01T04:35:44.420Z,17.50
2022-11-01T04:38:14.892Z,17.50
2022-11-01T04:40:44.298Z,17.50
2022-11-01T04:43:13.326Z,17.50
2022-11-01T04:45:41.779Z,17.50
2022-11-01T04:48:13.754Z,17.50
2022-11-01T04:50:43.253Z,17.50
2022-11-01T04:53:13.052Z,17.50
2022-11-01T04:55:41.161Z,17.40
2022-11-01T04:58:10.809Z,17.50
2022-11-01T05:00:39.795Z,17.50
2022-11-01T05:03:10.748Z,17.50
2022-11-01T05:05:39.273Z,17.40
2022-11-01T05:08:09.997Z,17.40
2022-11-01T05:10:42.888Z,17.40
2022-11-01T05:13:13.022Z,17.40
2022-11-01T05:15:53.455Z,17.40
2022-11-01T05:18:29.757Z,17.40
2022-11-01T05:20:58.195Z,17.40
2022-11-01T05:23:26.231Z,17.40
2022-11-01T05:25:55.610Z,17.40
2022-11-01T05:28:23.715Z,17.40
2022-11-01T05:30:51.748Z,17.40
2022-11-01T05:33:19.722Z,17.40
2022-11-01T05:35:47.765Z,17.40
2022-11-01T05:38:15.875Z,17.40
2022-11-01T05:40:44.129Z,17.40
2022-11-01T05:43:13.452Z,17.40
2022-11-01T05:45:41.454Z,17.40
2022-11-01T05:48:09.622Z,17.40
2022-11-01T05:50:37.679Z,17.30
2022-11-01T05:53:08.440Z,17.30
2022-11-01T05:55:37.489Z,17.20
2022-11-01T05:58:06.113Z,17.30
2022-11-01T06:00:36.446Z,17.30
2022-11-01T06:03:06.381Z,17.30
2022-11-01T06:05:35.343Z,17.30
2022-11-01T06:08:04.149Z,17.20
2022-11-01T06:10:33.091Z,17.30
2022-11-01T06:13:01.427Z,17.30
2022-11-01T06:15:32.181Z,17.30
2022-11-01T06:18:05.211Z,17.30
2022-11-01T06:20:34.929Z,17.30
2022-11-01T06:23:02.905Z,17.30
2022-11-01T06:25:31.021Z,17.40
2022-11-01T06:27:59.209Z,17.40
2022-11-01T06:30:27.505Z,17.40
2022-11-01T06:33:01.864Z,17.30
2022-11-01T06:35:31.672Z,17.40
2022-11-01T06:38:03.814Z,17.40
2022-11-01T06:40:31.913Z,17.40
2022-11-01T06:43:05.698Z,17.20
2022-11-01T06:45:34.545Z,17.40
2022-11-01T06:48:02.799Z,17.40
2022-11-01T06:50:33.116Z,17.40
2022-11-01T06:53:01.712Z,17.40
2022-11-01T06:55:30.975Z,17.40
2022-11-01T06:58:01.574Z,17.40
2022-11-01T07:00:31.623Z,17.40
2022-11-01T07:03:01.221Z,17.40
2022-11-01T07:05:32.941Z,17.50
2022-11-01T07:08:08.308Z,17.40
2022-11-01T07:10:38.198Z,17.50
2022-11-01T07:13:08.215Z,17.50
2022-11-01T07:15:36.478Z,17.50
2022-11-01T07:18:08.237Z,17.50
2022-11-01T07:20:41.853Z,17.50
2022-11-01T07:23:15.571Z,17.50
2022-11-01T07:25:44.428Z,17.60
2022-11-01T07:28:13.118Z,17.60
2022-11-01T07:30:41.136Z,17.60
2022-11-01T07:33:09.898Z,17.60
2022-11-01T07:35:37.972Z,17.60
2022-11-01T07:38:11.548Z,17.70
2022-11-01T07:40:44.490Z,17.60
2022-11-01T07:43:12.553Z,17.70
2022-11-01T07:45:40.636Z,17.70
2022-11-01T07:48:12.486Z,17.80
2022-11-01T07:50:42.484Z,17.80
2022-11-01T07:53:13.299Z,17.80
2022-11-01T07:55:43.908Z,17.80
2022-11-01T07:58:13.180Z,17.90
2022-11-01T08:00:42.573Z,17.90
2022-11-01T08:03:13.815Z,17.90
2022-11-01T08:05:44.531Z,18.00
2022-11-01T08:08:13.495Z,18.00
2022-11-01T08:10:43.364Z,18.00
2022-11-01T08:13:18.758Z,18.00
2022-11-01T08:15:47.774Z,18.10
2022-11-01T08:18:16.749Z,18.10
2022-11-01T08:20:45.455Z,18.20
2022-11-01T08:23:13.678Z,18.20
2022-11-01T08:25:43.379Z,18.20
2022-11-01T08:28:15.144Z,18.20
2022-11-01T08:30:46.621Z,18.30
2022-11-01T08:33:15.271Z,18.30
2022-11-01T08:35:50.096Z,18.40
2022-11-01T08:38:18.342Z,18.40
2022-11-01T08:40:47.987Z,18.40
2022-11-01T08:43:16.100Z,18.50
2022-11-01T08:45:44.179Z,18.50
2022-11-01T08:48:12.624Z,18.50
2022-11-01T08:50:41.949Z,18.60
2022-11-01T08:53:12.972Z,18.60
2022-11-01T08:55:41.867Z,18.70
2022-11-01T08:58:12.113Z,18.70
2022-11-01T09:00:40.121Z,18.70
2022-11-01T09:03:08.336Z,18.80
2022-11-01T09:05:36.926Z,18.80
2022-11-01T09:08:06.008Z,18.80
2022-11-01T09:10:34.592Z,18.90
2022-11-01T09:13:03.461Z,18.90
2022-11-01T09:15:33.718Z,18.90
2022-11-01T09:18:07.218Z,19.00
2022-11-01T09:20:35.273Z,19.00
2022-11-01T09:23:03.612Z,19.00
2022-11-01T09:25:32.060Z,19.10
2022-11-01T09:28:00.089Z,19.10
2022-11-01T09:30:28.725Z,19.10
2022-11-01T09:32:58.049Z,19.20
2022-11-01T09:35:26.083Z,19.20
2022-11-01T09:37:59.098Z,19.20
2022-11-01T09:40:29.545Z,19.20
2022-11-01T09:43:01.716Z,19.30
2022-11-01T09:45:34.181Z,19.30
2022-11-01T09:48:07.346Z,19.30
2022-11-01T09:50:39.895Z,19.40
2022-11-01T09:53:18.267Z,19.30
2022-11-01T09:55:56.098Z,19.40
2022-11-01T09:58:36.970Z,19.40
2022-11-01T10:01:25.058Z,19.50
2022-11-01T10:04:21.490Z,19.50
2022-11-01T10:06:58.960Z,19.50
2022-11-01T10:09:39.010Z,19.60
2022-11-01T10:12:27.429Z,19.60
2022-11-01T10:15:14.627Z,19.60
2022-11-01T10:17:52.674Z,19.70
2022-11-01T10:20:28.432Z,19.70
2022-11-01T10:22:57.717Z,19.80
2022-11-01T10:25:31.817Z,19.80
2022-11-01T10:28:11.266Z,19.80
2022-11-01T10:30:46.761Z,19.90
2022-11-01T10:33:30.372Z,19.80
2022-11-01T10:36:05.235Z,19.90
2022-11-01T10:39:16.606Z,19.90
2022-11-01T10:41:36.962Z,20.00
2022-11-01T10:44:12.005Z,20.00
2022-11-01T10:46:45.431Z,19.90
2022-11-01T10:49:24.747Z,20.00
2022-11-01T10:51:59.581Z,20.10
2022-11-01T10:54:31.850Z,20.10
2022-11-01T10:57:08.833Z,20.10
2022-11-01T10:59:43.389Z,20.10
2022-11-01T11:02:23.277Z,20.20
2022-11-01T11:04:51.665Z,20.20
2022-11-01T11:07:24.206Z,20.30
2022-11-01T11:09:52.532Z,20.30
2022-11-01T11:12:24.852Z,20.30
2022-11-01T11:14:58.491Z,20.30
2022-11-01T11:17:32.288Z,20.40
2022-11-01T11:20:05.612Z,20.40
2022-11-01T11:22:40.020Z,20.40
2022-11-01T11:25:16.201Z,20.40
2022-11-01T11:27:48.531Z,20.50
2022-11-01T11:30:32.251Z,20.50
2022-11-01T11:33:02.176Z,20.60
2022-11-01T11:35:32.744Z,20.60
2022-11-01T11:38:06.289Z,20.60
2022-11-01T11:40:45.749Z,20.60
2022-11-01T11:43:25.941Z,20.70
2022-11-01T11:46:06.789Z,20.70
2022-11-01T11:48:34.874Z,20.80
2022-11-01T11:51:06.808Z,20.80
2022-11-01T11:53:36.252Z,20.80
2022-11-01T11:56:08.384Z,20.80
2022-11-01T11:58:42.399Z,20.90
2022-11-01T12:01:15.431Z,20.90
2022-11-01T12:03:51.517Z,20.90
2022-11-01T12:06:23.297Z,20.90
2022-11-01T12:08:55.394Z,21.00
2022-11-01T12:11:25.213Z,21.00
2022-11-01T12:14:03.950Z,21.00
2022-11-01T12:16:42.475Z,21.00
2022-11-01T12:19:27.425Z,21.00
2022-11-01T12:21:58.021Z,21.10
2022-11-01T12:24:43.904Z,21.10
2022-11-01T12:27:19.341Z,21.10
2022-11-01T12:29:54.468Z,21.10
2022-11-01T12:32:38.919Z,21.10
2022-11-01T12:35:22.429Z,21.10
2022-11-01T12:38:19.706Z,21.10
2022-11-01T12:40:53.452Z,21.10
2022-11-01T12:43:29.139Z,21.20
2022-11-01T12:46:02.998Z,21.20
2022-11-01T12:48:38.851Z,21.20
2022-11-01T12:51:15.725Z,21.20
2022-11-01T12:53:50.571Z,21.20
2022-11-01T12:56:20.383Z,21.30
2022-11-01T12:58:49.650Z,21.30
2022-11-01T13:01:31.673Z,21.30
2022-11-01T13:04:17.575Z,21.30
2022-11-01T13:07:02.066Z,21.30
2022-11-01T13:09:47.014Z,21.30
2022-11-01T13:12:33.474Z,21.30
2022-11-01T13:15:12.153Z,21.30
2022-11-01T13:17:49.351Z,21.30
2022-11-01T13:20:33.272Z,21.30
2022-11-01T13:23:15.118Z,21.40
2022-11-01T13:25:52.017Z,21.40
2022-11-01T13:28:44.757Z,21.40
2022-11-01T13:31:31.810Z,21.40
2022-11-01T13:34:21.357Z,21.40
2022-11-01T13:37:04.301Z,21.40
2022-11-01T13:39:50.282Z,21.40
2022-11-01T13:42:22.785Z,21.40
2022-11-01T13:45:24.711Z,21.40
2022-11-01T13:48:04.577Z,21.40
2022-11-01T13:51:10.484Z,21.40
2022-11-01T13:53:46.444Z,21.40
2022-11-01T13:56:22.509Z,21.40
2022-11-01T13:58:50.569Z,21.50
2022-11-01T14:01:35.523Z,21.40
2022-11-01T14:04:58.711Z,21.40
2022-11-01T14:07:32.288Z,21.40
2022-11-01T14:10:00.559Z,21.40
2022-11-01T14:12:44.749Z,21.40
2022-11-01T14:15:24.739Z,21.40
2022-11-01T14:18:05.416Z,21.50
2022-11-01T14:20:45.472Z,21.50
2022-11-01T14:24:10.832Z,21.40
2022-11-01T14:27:33.450Z,21.40
2022-11-01T14:30:02.689Z,21.50
2022-11-01T14:32:33.029Z,21.50
2022-11-01T14:35:20.840Z,21.40
2022-11-01T14:37:53.836Z,21.40
2022-11-01T14:40:31.738Z,21.50
2022-11-01T14:43:06.932Z,21.50
2022-11-01T14:45:40.713Z,21.50
2022-11-01T14:48:19.659Z,21.50
2022-11-01T14:50:59.997Z,21.50
2022-11-01T14:53:34.074Z,21.50
2022-11-01T14:56:16.072Z,21.40
2022-11-01T14:58:44.819Z,21.50
2022-11-01T15:01:17.174Z,21.50
2022-11-01T15:03:55.368Z,21.40
2022-11-01T15:06:28.605Z,21.50
2022-11-01T15:08:59.051Z,21.50
2022-11-01T15:11:29.855Z,21.50
2022-11-01T15:14:00.419Z,21.50
2022-11-01T15:16:29.985Z,21.50
2022-11-01T15:19:09.322Z,21.50
2022-11-01T15:21:47.452Z,21.50
2022-11-01T15:24:22.983Z,21.50
2022-11-01T15:26:51.699Z,21.40
2022-11-01T15:29:22.860Z,21.50
2022-11-01T15:31:57.774Z,21.40
2022-11-01T15:34:29.329Z,21.40
2022-11-01T15:36:59.800Z,21.40
2022-11-01T15:39:29.963Z,21.40
2022-11-01T15:41:58.096Z,21.40
2022-11-01T15:44:28.231Z,21.40
2022-11-01T15:47:01.179Z,21.40
2022-11-01T15:49:35.091Z,21.40
2022-11-01T15:52:17.528Z,21.40
2022-11-01T15:54:50.945Z,21.30
2022-11-01T15:57:26.133Z,21.30
2022-11-01T16:00:05.335Z,21.30
2022-11-01T16:02:46.212Z,21.30
2022-11-01T16:05:20.344Z,21.20
2022-11-01T16:07:50.628Z,21.30
2022-11-01T16:10:23.626Z,21.30
2022-11-01T16:12:53.489Z,21.30
2022-11-01T16:15:26.102Z,21.20
2022-11-01T16:17:57.515Z,21.20
2022-11-01T16:20:34.989Z,21.20
2022-11-01T16:23:06.287Z,21.20
2022-11-01T16:25:37.229Z,21.20
2022-11-01T16:28:27.788Z,21.10
2022-11-01T16:30:57.413Z,21.00
2022-11-01T16:33:30.809Z,21.10
2022-11-01T16:36:01.427Z,21.10
2022-11-01T16:38:43.291Z,21.00
2022-11-01T16:41:21.050Z,21.00
2022-11-01T16:43:53.051Z,21.00
2022-11-01T16:46:22.325Z,21.00
2022-11-01T16:48:55.002Z,20.90
2022-11-01T16:51:28.344Z,21.00
2022-11-01T16:54:00.190Z,21.00
2022-11-01T16:56:37.359Z,20.90
2022-11-01T16:59:20.180Z,20.90
2022-11-01T17:01:49.283Z,20.90
2022-11-01T17:04:20.031Z,20.90
2022-11-01T17:06:48.341Z,20.90
2022-11-01T17:09:20.811Z,20.90
2022-11-01T17:11:51.613Z,20.90
2022-11-01T17:14:20.810Z,20.90
2022-11-01T17:16:51.690Z,20.80
2022-11-01T17:19:27.173Z,20.80
2022-11-01T17:21:57.116Z,20.80
2022-11-01T17:24:27.852Z,20.80
2022-11-01T17:27:00.519Z,20.80
2022-11-01T17:29:29.216Z,20.80
2022-11-01T17:31:57.205Z,20.80
2022-11-01T17:34:26.440Z,20.80
2022-11-01T17:36:54.654Z,20.70
2022-11-01T17:39:22.982Z,20.70
2022-11-01T17:41:52.512Z,20.70
2022-11-01T17:44:21.403Z,20.70
2022-11-01T17:46:50.688Z,20.70
2022-11-01T17:49:21.493Z,20.70
2022-11-01T17:51:54.392Z,20.70
2022-11-01T17:54:23.430Z,20.60
2022-11-01T17:56:52.895Z,20.60
2022-11-01T17:59:21.203Z,20.60
2022-11-01T18:01:49.276Z,20.60
2022-11-01T18:04:17.756Z,20.60
2022-11-01T18:06:45.837Z,20.60
2022-11-01T18:09:22.678Z,20.50
2022-11-01T18:12:01.528Z,20.50
2022-11-01T18:14:55.037Z,20.50
2022-11-01T18:17:40.667Z,20.50
2022-11-01T18:20:26.102Z,20.40
2022-11-01T18:23:01.568Z,20.40
2022-11-01T18:25:37.397Z,20.40
2022-11-01T18:28:15.676Z,20.40
2022-11-01T18:30:50.031Z,20.40
2022-11-01T18:33:29.971Z,20.40
2022-11-01T18:36:06.734Z,20.30
2022-11-01T18:38:44.144Z,20.40
2022-11-01T18:41:20.577Z,20.30
2022-11-01T18:43:54.042Z,20.30
2022-11-01T18:46:27.054Z,20.30
2022-11-01T18:49:00.664Z,20.30
2022-11-01T18:51:31.504Z,20.30
2022-11-01T18:54:27.734Z,20.30
2022-11-01T18:57:16.178Z,20.30
2022-11-01T18:59:50.096Z,20.30
2022-11-01T19:02:23.379Z,20.30
2022-11-01T19:04:53.556Z,20.30
2022-11-01T19:07:39.470Z,20.30
2022-11-01T19:10:21.317Z,20.20
2022-11-01T19:12:54.913Z,20.20
2022-11-01T19:15:28.188Z,20.20
2022-11-01T19:18:02.875Z,20.20
2022-11-01T19:20:36.404Z,20.20
2022-11-01T19:23:13.149Z,20.20
2022-11-01T19:25:45.590Z,20.20
2022-11-01T19:28:24.853Z,20.10
2022-11-01T19:30:57.018Z,20.10
2022-11-01T19:33:37.246Z,20.10
2022-11-01T19:36:15.146Z,20.10
2022-11-01T19:38:45.135Z,20.10
2022-11-01T19:41:19.305Z,20.10
2022-11-01T19:43:47.809Z,20.10
2022-11-01T19:46:20.661Z,20.10
2022-11-01T19:48:49.887Z,20.10
2022-11-01T19:51:23.523Z,20.10
2022-11-01T19:53:53.333Z,20.10
2022-11-01T19:56:24.878Z,20.00
2022-11-01T19:58:56.084Z,20.00
2022-11-01T20:01:40.653Z,20.00
2022-11-01T20:04:23.189Z,20.00
2022-11-01T20:07:00.959Z,20.00
2022-11-01T20:09:30.975Z,20.00
2022-11-01T20:11:59.189Z,20.00
2022-11-01T20:14:27.590Z,20.00
2022-11-01T20:16:56.977Z,19.90
2022-11-01T20:19:25.011Z,20.00
2022-11-01T20:21:53.099Z,19.90
2022-11-01T20:24:21.152Z,19.90
2022-11-01T20:26:49.289Z,19.90
2022-11-01T20:29:17.475Z,19.90
2022-11-01T20:31:45.751Z,19.90
2022-11-01T20:34:15.384Z,19.90
2022-11-01T20:36:46.860Z,19.90
2022-11-01T20:39:24.121Z,19.90
2022-11-01T20:41:53.129Z,19.90
2022-11-01T20:44:22.084Z,19.90
2022-11-01T20:46:50.231Z,19.80
2022-11-01T20:49:19.606Z,19.80
2022-11-01T20:51:47.708Z,19.80
2022-11-01T20:54:18.043Z,19.80
2022-11-01T20:56:46.421Z,19.70
2022-11-01T20:59:17.196Z,19.80
2022-11-01T21:01:48.681Z,19.70
2022-11-01T21:04:16.933Z,19.70
2022-11-01T21:06:46.350Z,19.70
2022-11-01T21:09:30.409Z,19.70
2022-11-01T21:11:59.267Z,19.60
2022-11-01T21:14:37.137Z,19.60
2022-11-01T21:17:17.775Z,19.60
2022-11-01T21:19:50.226Z,19.60
2022-11-01T21:22:22.146Z,19.60
2022-11-01T21:24:51.454Z,19.60
2022-11-01T21:27:31.250Z,19.60
2022-11-01T21:30:17.297Z,19.50
2022-11-01T21:32:47.124Z,19.60
2022-11-01T21:35:41.054Z,19.50
2022-11-01T21:38:41.229Z,19.40
2022-11-01T21:41:32.603Z,19.40
2022-11-01T21:44:21.066Z,19.40
2022-11-01T21:46:51.597Z,19.40
2022-11-01T21:49:29.300Z,19.40
2022-11-01T21:52:00.398Z,19.40
2022-11-01T21:54:33.861Z,19.40
2022-11-01T21:57:03.668Z,19.40
2022-11-01T21:59:32.416Z,19.40
2022-11-01T22:02:01.913Z,19.40
2022-11-01T22:04:33.325Z,19.30
2022-11-01T22:07:04.697Z,19.30
2022-11-01T22:09:35.141Z,19.30
2022-11-01T22:12:03.742Z,19.30
2022-11-01T22:14:32.082Z,19.30
2022-11-01T22:17:00.981Z,19.30
2022-11-01T22:19:29.092Z,19.30
2022-11-01T22:21:57.152Z,19.30
2022-11-01T22:24:25.383Z,19.30
2022-11-01T22:26:54.759Z,19.20
2022-11-01T22:29:22.967Z,19.20
2022-11-01T22:31:51.348Z,19.20
2022-11-01T22:34:19.580Z,19.20
2022-11-01T22:36:47.624Z,19.20
2022-11-01T22:39:20.927Z,19.20
2022-11-01T22:41:49.701Z,19.20
2022-11-01T22:44:26.975Z,19.10
2022-11-01T22:46:59.003Z,19.10
2022-11-01T22:49:31.836Z,19.10
2022-11-01T22:52:06.196Z,19.10
2022-11-01T22:54:39.995Z,19.00
2022-11-01T22:57:19.114Z,19.00
2022-11-01T22:59:54.201Z,19.00
2022-11-01T23:02:30.693Z,19.00
2022-11-01T23:05:24.333Z,18.90
2022-11-01T23:07:54.732Z,19.00
2022-11-01T23:10:29.591Z,18.90
2022-11-01T23:13:26.970Z,18.90
2022-11-01T23:16:00.006Z,18.90
2022-11-01T23:18:31.849Z,18.90
2022-11-01T23:21:03.622Z,18.90
2022-11-01T23:23:31.654Z,18.90
2022-11-01T23:26:03.489Z,18.90
2022-11-01T23:28:34.936Z,18.90
2022-11-01T23:31:06.261Z,18.80
2022-11-01T23:33:40.710Z,18.80
2022-11-01T23:36:19.485Z,18.80
2022-11-01T23:38:53.417Z,18.80
2022-11-01T23:41:26.005Z,18.80
2022-11-01T23:43:58.781Z,18.80
2022-11-01T23:46:28.536Z,18.80
2022-11-01T23:49:03.546Z,18.70
2022-11-01T23:51:32.171Z,18.70
2022-11-01T23:54:01.038Z,18.70
2022-11-01T23:56:29.659Z,18.70
2022-11-01T23:59:04.061Z,18.70
